Time;durP1;ratioP1;P1;durP2;ratioP2;P2;SDS_P1;SDS_P2;PMS_P1;PMS_P2;Temp;Humidity;BMP_temperature;BMP_pressure;BME280_temperature;BME280_humidity;BME280_pressure;Samples;Min_cycle;Max_cycle;Signal;HPM_P1;HPM_P2
2023/02/05 00:02:08;;;;;;;13.70;9.20;;;;;;;3.64;51.86;99951.84;8444107;28;20231;-65
2023/02/05 00:06:11;;;;;;;12.13;8.27;;;;;;;3.39;51.90;99956.59;8443899;28;20242;-66
2023/02/05 00:10:14;;;;;;;10.63;7.57;;;;;;;3.87;51.19;99952.19;8443615;28;20572;-66
2023/02/05 00:14:18;;;;;;;9.27;7.67;;;;;;;3.89;50.99;99938.56;8443775;28;20230;-65
2023/02/05 00:18:21;;;;;;;9.53;8.10;;;;;;;3.78;50.69;99942.66;8443819;28;20231;-66
2023/02/05 00:22:24;;;;;;;8.80;7.20;;;;;;;3.71;51.12;99933.16;8444041;28;20226;-66
2023/02/05 00:26:26;;;;;;;8.67;7.80;;;;;;;3.61;50.90;99921.91;8443532;28;20239;-65
2023/02/05 00:30:30;;;;;;;9.23;8.07;;;;;;;3.52;50.69;99893.59;8443350;28;20240;-67
2023/02/05 00:34:33;;;;;;;9.97;8.10;;;;;;;3.62;51.22;99921.09;8443427;28;20290;-66
2023/02/05 00:38:36;;;;;;;8.90;7.70;;;;;;;3.55;51.14;99915.84;8443333;28;20239;-66
2023/02/05 00:42:39;;;;;;;7.13;6.43;;;;;;;3.37;52.32;99934.31;8443132;28;20227;-66
2023/02/05 00:46:44;;;;;;;7.33;6.33;;;;;;;3.56;51.44;99938.94;8409347;28;20239;-66
2023/02/05 00:50:48;;;;;;;8.17;7.33;;;;;;;3.36;51.28;99942.88;8409697;28;20419;-66
2023/02/05 00:54:52;;;;;;;7.10;6.40;;;;;;;3.29;51.26;99947.91;8409896;28;20232;-66
2023/02/05 00:58:56;;;;;;;12.20;9.97;;;;;;;3.37;51.67;99950.59;8409708;28;20429;-66
2023/02/05 01:03:01;;;;;;;11.87;9.30;;;;;;;3.50;51.78;99949.06;8409586;28;20247;-66
2023/02/05 01:07:04;;;;;;;11.20;9.37;;;;;;;3.47;51.72;99947.31;8409096;28;20427;-66
2023/02/05 01:11:07;;;;;;;12.27;9.13;;;;;;;2.81;51.62;99833.59;8412360;28;20232;-66
2023/02/05 01:15:12;;;;;;;11.40;9.73;;;;;;;3.26;51.05;99960.63;8414520;28;20228;-65
2023/02/05 01:19:16;;;;;;;9.63;8.63;;;;;;;2.90;52.03;99959.16;8415411;28;20228;-66
2023/02/05 01:23:19;;;;;;;9.70;8.70;;;;;;;3.06;51.97;99944.91;8415153;28;20432;-66
2023/02/05 01:27:23;;;;;;;11.37;8.97;;;;;;;3.20;52.00;99946.84;8415009;28;20228;-67
2023/02/05 01:31:28;;;;;;;11.73;8.90;;;;;;;3.12;51.52;99941.59;8415000;28;20228;-66
2023/02/05 01:35:32;;;;;;;10.60;9.30;;;;;;;2.96;51.45;99939.63;8414897;28;20254;-65
2023/02/05 01:39:36;;;;;;;13.73;9.80;;;;;;;2.74;52.82;99928.97;8414851;28;20330;-65
2023/02/05 01:43:39;;;;;;;12.23;9.63;;;;;;;3.13;51.98;99922.84;8414655;28;20524;-65
2023/02/05 01:47:42;;;;;;;12.50;10.40;;;;;;;3.08;51.76;99892.03;8414097;28;20335;-66
2023/02/05 01:51:47;;;;;;;12.53;10.20;;;;;;;3.12;51.46;99891.28;8414257;28;20401;-66
2023/02/05 01:55:57;;;;;;;11.63;9.37;;;;;;;3.37;51.08;99913.84;8414195;28;20405;-66
2023/02/05 02:00:00;;;;;;;11.27;9.80;;;;;;;3.27;50.84;99913.69;8413920;28;20235;-66
2023/02/05 02:04:03;;;;;;;11.13;9.67;;;;;;;3.08;51.29;99911.66;8414181;28;20232;-66
2023/02/05 02:08:10;;;;;;;10.93;9.60;;;;;;;3.10;50.67;99876.72;8413612;28;20401;-66
2023/02/05 02:12:15;;;;;;;12.30;9.83;;;;;;;2.92;51.54;99898.59;8412734;28;20224;-67
2023/02/05 02:16:18;;;;;;;12.43;10.40;;;;;;;3.19;51.85;99887.09;8413581;28;20385;-66
2023/02/05 02:20:24;;;;;;;12.97;10.33;;;;;;;2.84;51.60;99818.28;8413374;28;20522;-66
2023/02/05 02:24:56;;;;;;;11.73;10.37;;;;;;;3.07;51.84;99857.06;8412962;28;20232;-66
2023/02/05 02:29:02;;;;;;;13.50;10.97;;;;;;;2.95;51.94;99833.81;8446303;28;20255;-66
2023/02/05 02:33:07;;;;;;;12.27;10.00;;;;;;;3.13;51.98;99858.84;8446665;28;20306;-65
2023/02/05 02:37:14;;;;;;;13.13;10.73;;;;;;;2.87;52.59;99869.50;8446635;28;20284;-67
2023/02/05 02:41:19;;;;;;;12.20;9.97;;;;;;;2.78;52.24;99856.59;8446477;28;20223;-66
2023/02/05 02:45:27;;;;;;;12.33;9.83;;;;;;;2.83;52.46;99869.44;8446004;28;20223;-66
2023/02/05 02:49:33;;;;;;;10.93;9.03;;;;;;;2.27;51.73;99840.31;8446057;28;20223;-66
2023/02/05 02:53:38;;;;;;;11.03;8.93;;;;;;;2.45;51.61;99841.47;8446250;28;20235;-66
2023/02/05 02:57:43;;;;;;;12.90;9.37;;;;;;;2.37;51.94;99836.22;8445513;28;20231;-67
2023/02/05 03:01:49;;;;;;;11.10;9.47;;;;;;;2.65;51.90;99860.63;8411984;28;20231;-66
2023/02/05 03:05:56;;;;;;;15.37;9.73;;;;;;;2.34;52.24;99854.06;8411824;28;20239;-66
2023/02/05 03:10:02;;;;;;;12.87;9.20;;;;;;;2.48;52.19;99859.44;8411923;28;20292;-66
2023/02/05 03:14:05;;;;;;;11.60;8.93;;;;;;;2.67;51.40;99860.66;8411481;28;20228;-66
2023/02/05 03:18:09;;;;;;;12.23;9.20;;;;;;;2.57;51.86;99851.94;8411618;28;20232;-66
2023/02/05 03:22:12;;;;;;;9.60;8.57;;;;;;;2.61;52.12;99856.28;8411719;28;20228;-66
2023/02/05 03:26:26;;;;;;;10.20;9.00;;;;;;;2.52;51.38;99823.72;8411290;28;20255;-66
2023/02/05 03:30:35;;;;;;;10.53;8.57;;;;;;;2.60;52.02;99838.34;8411247;28;20224;-65
2023/02/05 03:34:51;;;;;;;12.33;8.93;;;;;;;2.51;52.23;99834.78;8410569;28;20236;-65
2023/02/05 03:39:11;;;;;;;11.97;9.27;;;;;;;2.42;52.10;99821.84;8443924;28;20507;-66
2023/02/05 03:43:24;;;;;;;11.73;9.23;;;;;;;2.40;51.95;99818.41;8444434;28;20227;-66
2023/02/05 03:47:35;;;;;;;11.60;10.03;;;;;;;2.14;53.45;99823.88;8444208;28;20232;-66
2023/02/05 03:51:44;;;;;;;12.70;9.10;;;;;;;2.30;53.34;99819.91;8444487;28;20374;-66
2023/02/05 03:55:50;;;;;;;10.87;9.20;;;;;;;2.45;52.50;99810.78;8410049;28;20228;-65
2023/02/05 03:59:53;;;;;;;12.80;9.53;;;;;;;2.36;52.87;99801.25;8410440;28;20716;-65
2023/02/05 04:03:56;;;;;;;13.00;9.37;;;;;;;2.79;51.92;99809.66;8410514;28;20232;-66
2023/02/05 04:08:00;;;;;;;13.13;9.87;;;;;;;2.39;51.72;99823.47;8410040;28;20232;-65
2023/02/05 04:12:03;;;;;;;10.97;8.83;;;;;;;2.54;51.89;99819.47;8410097;28;20226;-66
2023/02/05 04:16:06;;;;;;;10.23;7.90;;;;;;;2.15;52.67;99799.16;8410076;28;20251;-66
2023/02/05 04:20:10;;;;;;;8.47;7.37;;;;;;;2.16;52.66;99808.56;8410239;28;20295;-66
2023/02/05 04:24:14;;;;;;;9.10;7.07;;;;;;;2.37;52.32;99809.81;8409844;28;20235;-66
2023/02/05 04:28:17;;;;;;;8.30;7.40;;;;;;;2.16;52.74;99813.66;8409629;28;20387;-65
2023/02/05 04:32:20;;;;;;;8.50;7.13;;;;;;;2.49;52.08;99817.69;8409962;28;20515;-66
2023/02/05 04:36:23;;;;;;;8.17;6.63;;;;;;;2.63;51.84;99829.03;8409975;28;20528;-65
2023/02/05 04:40:27;;;;;;;8.10;7.30;;;;;;;2.31;52.07;99819.06;8409720;28;20231;-65
2023/02/05 04:44:30;;;;;;;7.37;6.67;;;;;;;2.59;51.78;99827.25;8410175;28;20554;-65
2023/02/05 04:48:33;;;;;;;8.00;6.67;;;;;;;2.40;51.94;99814.94;8416001;28;20235;-66
2023/02/05 04:52:36;;;;;;;7.40;6.07;;;;;;;2.58;51.61;99824.66;8416345;28;20235;-66
2023/02/05 04:56:40;;;;;;;7.17;6.43;;;;;;;2.28;51.62;99831.78;8414910;28;20235;-65
2023/02/05 05:00:43;;;;;;;7.73;5.83;;;;;;;2.53;51.91;99838.25;8449134;28;20246;-66
2023/02/05 05:04:46;;;;;;;6.13;5.53;;;;;;;2.44;51.35;99802.25;8449348;28;20227;-66
2023/02/05 05:08:49;;;;;;;7.10;5.60;;;;;;;2.52;51.88;99827.97;8448777;28;20231;-65
2023/02/05 05:12:53;;;;;;;6.83;5.87;;;;;;;2.46;51.53;99833.00;8449039;28;20227;-65
2023/02/05 05:16:56;;;;;;;7.33;5.83;;;;;;;2.59;51.30;99834.94;8449223;28;20239;-66
2023/02/05 05:20:59;;;;;;;6.57;5.80;;;;;;;2.39;51.39;99829.44;8449032;28;20231;-66
2023/02/05 05:25:02;;;;;;;5.90;5.10;;;;;;;2.06;52.51;99830.53;8448327;28;20239;-65
2023/02/05 05:29:06;;;;;;;6.00;5.27;;;;;;;2.48;51.18;99837.28;8448368;28;20524;-66
2023/02/05 05:33:09;;;;;;;5.60;5.10;;;;;;;2.06;51.14;99778.56;8448526;28;20227;-66
2023/02/05 05:37:12;;;;;;;6.07;4.80;;;;;;;2.30;51.17;99834.38;8448633;28;20286;-67
2023/02/05 05:45:40;;;;;;;5.40;4.67;;;;;;;2.25;51.60;99801.06;8447789;28;20227;-66
2023/02/05 05:49:44;;;;;;;6.80;4.97;;;;;;;2.35;51.19;99825.97;8447588;28;20228;-66
2023/02/05 05:53:47;;;;;;;6.57;4.53;;;;;;;2.17;52.28;99837.53;8447884;28;20228;-66
2023/02/05 05:57:50;;;;;;;5.90;4.90;;;;;;;2.26;51.30;99830.91;8447358;28;20538;-67
2023/02/05 06:01:54;;;;;;;5.97;5.10;;;;;;;2.08;50.82;99831.41;8447576;28;20234;-66
2023/02/05 06:05:59;;;;;;;9.30;7.00;;;;;;;2.20;51.25;99817.16;8447455;28;20235;-67
2023/02/05 06:10:02;;;;;;;5.50;4.87;;;;;;;2.35;50.66;99817.44;8447410;28;20234;-66
2023/02/05 06:14:05;;;;;;;5.43;4.60;;;;;;;2.24;51.33;99796.78;8447219;28;20224;-66
2023/02/05 06:18:10;;;;;;;7.17;5.27;;;;;;;2.17;51.16;99817.09;8447142;28;20228;-66
2023/02/05 06:22:13;;;;;;;5.07;4.57;;;;;;;2.33;51.13;99807.19;8447025;28;20322;-66
2023/02/05 06:26:15;;;;;;;5.33;4.83;;;;;;;2.31;51.10;99813.09;8446455;28;20553;-65
2023/02/05 06:30:19;;;;;;;5.00;4.50;;;;;;;1.95;51.32;99775.78;8446802;28;20239;-66
2023/02/05 06:34:23;;;;;;;6.53;5.07;;;;;;;2.05;51.59;99813.47;8445804;28;20224;-67
2023/02/05 06:38:26;;;;;;;5.83;4.73;;;;;;;2.26;51.28;99828.34;8446291;28;20227;-66
2023/02/05 06:42:29;;;;;;;6.13;4.90;;;;;;;2.39;51.22;99808.13;8445944;28;20223;-67
2023/02/05 06:46:32;;;;;;;5.77;5.20;;;;;;;2.41;50.73;99812.44;8445945;28;20449;-66
2023/02/05 06:50:36;;;;;;;6.43;5.40;;;;;;;2.44;50.84;99809.09;8445719;28;20246;-66
2023/02/05 06:54:39;;;;;;;5.73;5.20;;;;;;;2.43;51.16;99805.63;8445874;28;20235;-66
2023/02/05 06:58:42;;;;;;;6.00;5.00;;;;;;;2.39;51.54;99803.88;8445431;28;20495;-66
2023/02/05 07:02:45;;;;;;;5.17;4.67;;;;;;;2.70;51.49;99801.84;8445735;28;20227;-66
2023/02/05 07:06:50;;;;;;;6.07;5.37;;;;;;;2.52;52.14;99817.75;8444839;28;20273;-66
2023/02/05 07:10:53;;;;;;;6.03;4.93;;;;;;;2.35;52.05;99809.75;8444708;28;20409;-66
2023/02/05 07:14:55;;;;;;;5.57;5.03;;;;;;;2.49;51.94;99817.69;8445486;28;20407;-66
2023/02/05 07:18:58;;;;;;;6.37;5.40;;;;;;;1.82;53.79;99796.81;8445099;28;20417;-67
2023/02/05 07:23:04;;;;;;;6.27;5.60;;;;;;;2.04;54.09;99805.78;8445182;28;20239;-67
2023/02/05 07:27:07;;;;;;;6.90;5.33;;;;;;;1.39;55.58;99773.81;8444694;28;20566;-67
2023/02/05 07:31:11;;;;;;;6.93;6.23;;;;;;;2.35;53.82;99794.44;8444858;28;20337;-65
2023/02/05 07:35:14;;;;;;;6.60;5.87;;;;;;;1.95;53.91;99788.56;8444750;28;20243;-65
2023/02/05 07:39:19;;;;;;;7.50;6.20;;;;;;;1.02;55.06;99642.84;8444652;28;20235;-67
2023/02/05 07:43:22;;;;;;;6.97;5.67;;;;;;;1.63;56.71;99772.59;8444932;28;20274;-66
2023/02/05 07:47:25;;;;;;;6.50;5.57;;;;;;;1.70;55.33;99775.31;8444449;28;20235;-66
2023/02/05 07:51:27;;;;;;;7.40;6.27;;;;;;;1.92;55.24;99778.28;8444565;28;20547;-67
2023/02/05 07:55:34;;;;;;;7.30;6.20;;;;;;;2.34;55.22;99775.69;8444472;28;20239;-67
2023/02/05 07:59:37;;;;;;;6.77;6.07;;;;;;;2.85;53.64;99776.50;8444650;28;20394;-67
2023/02/05 08:03:40;;;;;;;9.23;6.47;;;;;;;2.09;55.01;99735.16;8444587;28;20223;-67
2023/02/05 08:07:43;;;;;;;9.30;6.37;;;;;;;3.11;53.84;99760.69;8443500;28;20238;-67
2023/02/05 08:11:47;;;;;;;8.80;6.63;;;;;;;3.04;52.81;99754.59;8443909;28;20231;-67
2023/02/05 08:15:50;;;;;;;7.07;6.20;;;;;;;2.78;54.36;99708.19;8444295;28;20553;-67
2023/02/05 08:19:53;;;;;;;6.90;6.20;;;;;;;3.28;52.48;99758.38;8443501;28;20377;-67
2023/02/05 08:23:57;;;;;;;6.20;5.60;;;;;;;3.28;53.45;99748.97;8443644;28;20235;-67
2023/02/05 08:28:01;;;;;;;6.87;6.13;;;;;;;3.17;54.03;99740.28;8443520;28;20242;-67
2023/02/05 08:32:04;;;;;;;5.83;5.33;;;;;;;3.77;52.50;99732.47;8443936;28;20522;-67
2023/02/05 08:36:08;;;;;;;7.90;5.50;;;;;;;3.30;53.60;99739.59;8443810;28;20223;-68
2023/02/05 08:40:11;;;;;;;7.20;5.93;;;;;;;2.24;55.39;99752.47;8443411;28;20234;-67
2023/02/05 08:44:15;;;;;;;6.30;5.40;;;;;;;3.66;52.71;99742.63;8443909;28;20530;-67
2023/02/05 08:48:18;;;;;;;6.27;5.67;;;;;;;3.31;53.25;99746.47;8443627;28;20231;-67
2023/02/05 08:52:21;;;;;;;6.10;5.50;;;;;;;3.42;53.07;99731.22;8443244;28;20227;-67
2023/02/05 08:56:24;;;;;;;5.83;5.17;;;;;;;3.05;52.68;99676.13;8443163;28;20224;-66
2023/02/05 09:00:28;;;;;;;6.73;5.90;;;;;;;3.09;54.20;99701.78;8443319;28;20228;-66
2023/02/05 09:04:31;;;;;;;6.17;5.30;;;;;;;3.48;53.31;99707.38;8443771;28;20515;-67
2023/02/05 09:08:34;;;;;;;5.23;4.70;;;;;;;3.33;53.22;99678.19;8443144;28;20286;-68
2023/02/05 09:12:37;;;;;;;5.70;4.90;;;;;;;3.67;52.44;99699.06;8443773;28;20242;-67
2023/02/05 09:16:41;;;;;;;5.63;4.97;;;;;;;3.39;54.48;99697.03;8443459;28;20228;-67
2023/02/05 09:20:46;;;;;;;5.13;4.67;;;;;;;3.12;54.57;99657.44;8442504;28;20539;-68
2023/02/05 09:24:49;;;;;;;6.50;5.33;;;;;;;3.25;54.59;99684.06;8442593;28;20234;-67
2023/02/05 09:28:51;;;;;;;6.00;5.40;;;;;;;3.66;53.83;99688.81;8442801;28;20231;-67
2023/02/05 09:32:56;;;;;;;6.23;5.63;;;;;;;4.01;52.85;99678.91;8446490;28;20227;-68
2023/02/05 09:36:58;;;;;;;6.63;5.97;;;;;;;3.51;54.41;99676.69;8448827;28;20231;-68
2023/02/05 09:41:05;;;;;;;7.50;6.33;;;;;;;3.85;52.79;99666.81;8448907;28;20239;-67
2023/02/05 09:45:21;;;;;;;5.60;5.00;;;;;;;3.59;53.54;99672.50;8448733;28;20231;-67
2023/02/05 09:49:28;;;;;;;6.17;5.57;;;;;;;3.11;53.45;99637.81;8448509;28;20586;-68
2023/02/05 09:53:35;;;;;;;6.17;5.67;;;;;;;3.46;53.90;99668.09;8448679;28;20250;-68
2023/02/05 09:57:39;;;;;;;5.83;5.23;;;;;;;3.92;52.88;99641.25;8448653;28;20235;-68
2023/02/05 10:01:46;;;;;;;5.90;5.30;;;;;;;3.69;53.42;99633.34;8447870;28;20219;-68
2023/02/05 10:06:07;;;;;;;6.20;5.60;;;;;;;3.97;52.83;99664.34;8447900;28;20227;-68
2023/02/05 10:10:22;;;;;;;5.83;5.33;;;;;;;4.23;52.60;99664.59;8447740;28;20457;-68
2023/02/05 10:14:33;;;;;;;6.20;5.33;;;;;;;4.45;52.02;99660.47;8448094;28;20223;-69
2023/02/05 10:18:47;;;;;;;7.57;6.57;;;;;;;4.47;52.05;99647.66;8447735;28;20235;-68
2023/02/05 10:23:00;;;;;;;7.07;6.33;;;;;;;4.26;52.43;99648.34;8446765;28;20243;-66
2023/02/05 10:27:09;;;;;;;6.40;5.80;;;;;;;4.41;51.94;99614.28;8447440;28;20224;-67
2023/02/05 10:31:23;;;;;;;5.93;5.07;;;;;;;4.63;52.06;99634.09;8446908;28;20228;-67
2023/02/05 10:35:32;;;;;;;9.27;6.87;;;;;;;4.54;51.49;99605.81;8447000;28;20527;-67
2023/02/05 10:39:37;;;;;;;5.73;5.10;;;;;;;3.78;53.71;99621.47;8448855;28;20356;-68
2023/02/05 10:43:43;;;;;;;6.40;5.20;;;;;;;3.36;54.60;99592.00;8447108;28;20224;-67
2023/02/05 10:47:53;;;;;;;6.07;5.50;;;;;;;3.35;55.86;99588.59;8446542;28;20388;-68
2023/02/05 10:51:56;;;;;;;6.50;5.87;;;;;;;2.74;57.28;99591.25;8419494;28;20251;-68
2023/02/05 10:56:03;;;;;;;6.70;6.10;;;;;;;3.30;56.10;99573.16;8413312;28;20250;-68
2023/02/05 11:00:12;;;;;;;7.23;5.57;;;;;;;4.03;53.45;99556.72;8412341;28;20513;-68
2023/02/05 11:04:16;;;;;;;8.43;6.77;;;;;;;3.25;55.95;99576.50;8412488;28;20293;-68
2023/02/05 11:08:35;;;;;;;6.67;6.00;;;;;;;4.24;52.77;99589.34;8412069;28;20228;-67
2023/02/05 11:12:39;;;;;;;6.13;5.40;;;;;;;4.63;51.81;99594.75;8412460;28;20228;-68
2023/02/05 11:16:44;;;;;;;6.07;5.40;;;;;;;4.14;52.56;99586.72;8411835;28;20539;-68
2023/02/05 11:20:55;;;;;;;6.43;5.77;;;;;;;4.27;54.16;99585.97;8411918;28;20587;-67
2023/02/05 11:25:14;;;;;;;7.87;6.10;;;;;;;4.56;53.06;99588.72;8411602;28;20242;-67
2023/02/05 11:29:24;;;;;;;7.53;5.73;;;;;;;5.02;51.25;99595.78;8411769;28;20224;-67
2023/02/05 11:33:31;;;;;;;6.53;5.67;;;;;;;4.85;51.57;99582.88;8411618;28;20223;-66
2023/02/05 11:37:34;;;;;;;6.20;5.60;;;;;;;4.98;51.05;99582.06;8411179;28;20224;-66
2023/02/05 11:41:47;;;;;;;6.40;5.03;;;;;;;5.00;51.01;99546.13;8410718;28;20243;-66
2023/02/05 11:45:53;;;;;;;6.27;5.03;;;;;;;4.56;51.76;99524.56;8411166;28;20519;-67
2023/02/05 11:49:56;;;;;;;6.70;5.60;;;;;;;5.20;50.58;99564.19;8412235;28;20251;-67
2023/02/05 11:54:00;;;;;;;7.10;5.83;;;;;;;4.48;51.43;99546.78;8411044;28;20503;-67
2023/02/05 11:58:05;;;;;;;6.17;5.57;;;;;;;4.56;52.21;99580.16;8411290;28;20228;-68
2023/02/05 12:02:32;;;;;;;5.73;5.23;;;;;;;4.84;51.47;99573.47;8411350;28;20221;-67
2023/02/05 12:06:39;;;;;;;7.03;5.83;;;;;;;4.22;52.52;99572.25;8410541;28;20231;-68
2023/02/05 12:10:48;;;;;;;8.20;6.47;;;;;;;5.00;52.37;99570.09;8409665;28;20233;-67
2023/02/05 12:14:56;;;;;;;5.43;4.93;;;;;;;4.48;53.99;99557.03;8410419;28;20232;-67
2023/02/05 12:19:03;;;;;;;6.27;5.30;;;;;;;4.28;53.92;99510.72;8410188;28;20528;-67
2023/02/05 12:23:30;;;;;;;6.03;5.37;;;;;;;4.31;55.29;99534.69;8410048;28;20228;-66
2023/02/05 12:27:42;;;;;;;6.30;5.70;;;;;;;4.86;54.94;99513.56;8410073;28;20228;-66
2023/02/05 12:31:55;;;;;;;6.70;5.57;;;;;;;5.16;53.21;99514.53;8409215;28;20221;-67
2023/02/05 12:36:08;;;;;;;6.27;5.53;;;;;;;4.87;53.87;99505.03;8410114;28;20238;-67
2023/02/05 12:40:19;;;;;;;6.80;5.83;;;;;;;5.21;53.36;99507.66;8409608;28;20228;-66
2023/02/05 12:44:33;;;;;;;5.00;4.50;;;;;;;4.35;55.29;99506.50;8406291;28;20224;-66
2023/02/05 12:48:59;;;;;;;5.30;4.80;;;;;;;4.97;54.17;99481.94;8410128;28;20243;-66
2023/02/05 12:53:15;;;;;;;5.57;5.07;;;;;;;4.88;54.35;99493.91;8409397;28;20220;-68
2023/02/05 12:57:20;;;;;;;5.27;4.77;;;;;;;4.94;54.14;99502.47;8410236;28;20577;-67
2023/02/05 13:01:26;;;;;;;6.37;4.90;;;;;;;5.11;53.71;99505.94;8409767;28;20232;-67
2023/02/05 13:05:33;;;;;;;4.83;4.30;;;;;;;4.47;55.23;99476.66;8410231;28;20224;-67
2023/02/05 13:09:43;;;;;;;5.37;4.50;;;;;;;5.13;53.85;99485.41;8415880;28;20237;-67
2023/02/05 13:13:51;;;;;;;5.03;4.27;;;;;;;5.57;52.78;99490.56;8416064;28;20225;-67
2023/02/05 13:17:58;;;;;;;5.47;4.37;;;;;;;5.73;52.79;99485.44;8416244;28;20625;-67
2023/02/05 13:30:55;;;;;;;6.07;5.47;;;;;;;5.88;51.92;99503.41;8414542;28;20648;-67
2023/02/05 13:34:58;;;;;;;5.07;4.57;;;;;;;5.95;52.32;99509.44;8413742;28;20431;-67
2023/02/05 13:39:15;;;;;;;6.27;4.90;;;;;;;5.74;52.04;99507.72;8415170;28;20232;-67
2023/02/05 13:43:32;;;;;;;6.10;5.10;;;;;;;5.94;51.63;99503.44;8414903;28;20519;-67
2023/02/05 13:47:47;;;;;;;6.90;5.70;;;;;;;5.71;52.08;99500.00;8414771;28;20230;-67
2023/02/05 13:52:10;;;;;;;6.50;5.80;;;;;;;5.81;52.09;99502.59;8447498;28;20236;-67
2023/02/05 13:56:35;;;;;;;18.70;6.83;;;;;;;6.15;53.24;99506.84;8447919;28;20424;-68
2023/02/05 14:00:40;;;;;;;8.37;5.60;;;;;;;6.15;52.64;99496.56;8447638;28;20251;-68
2023/02/05 14:04:52;;;;;;;7.07;6.37;;;;;;;6.07;51.86;99496.56;8413540;28;20228;-66
2023/02/05 14:09:01;;;;;;;7.70;6.67;;;;;;;6.09;51.98;99496.56;8413799;28;20235;-66
2023/02/05 14:13:13;;;;;;;8.77;7.87;;;;;;;5.83;53.08;99502.59;8413921;28;20429;-67
2023/02/05 14:17:54;;;;;;;11.43;8.90;;;;;;;6.04;53.20;99496.59;8413393;28;20228;-68
2023/02/05 14:22:03;;;;;;;20.83;16.17;;;;;;;6.05;53.68;99493.16;8413016;28;20228;-68
2023/02/05 14:26:09;;;;;;;15.03;10.33;;;;;;;5.96;53.39;99501.75;8413034;28;20239;-68
2023/02/05 14:30:48;;;;;;;14.20;9.17;;;;;;;5.77;53.31;99451.16;8413537;28;20232;-68
2023/02/05 14:35:00;;;;;;;17.27;14.20;;;;;;;6.02;53.46;99498.31;8446494;28;20228;-67
2023/02/05 14:39:06;;;;;;;8.63;7.10;;;;;;;6.18;53.71;99514.56;8446783;28;20219;-68
2023/02/05 14:43:15;;;;;;;10.00;8.00;;;;;;;6.13;53.97;99524.00;8446919;28;20531;-68
2023/02/05 14:47:21;;;;;;;9.77;8.83;;;;;;;5.87;54.37;99525.72;8446685;28;20562;-68
2023/02/05 14:51:30;;;;;;;11.87;9.03;;;;;;;6.10;54.14;99521.44;8445954;28;20231;-67
2023/02/05 14:55:38;;;;;;;13.87;10.77;;;;;;;5.99;54.41;99529.16;8446373;28;20235;-68
2023/02/05 14:59:44;;;;;;;13.10;10.90;;;;;;;6.05;55.07;99535.19;8412202;28;20244;-68
2023/02/05 15:03:47;;;;;;;13.27;11.67;;;;;;;5.91;55.40;99533.44;8412812;28;20519;-68
2023/02/05 15:07:53;;;;;;;22.30;11.83;;;;;;;5.92;55.40;99540.28;8412010;28;20546;-67
2023/02/05 15:12:23;;;;;;;9.07;7.60;;;;;;;5.87;55.43;99546.28;8411899;28;20232;-68
2023/02/05 15:16:26;;;;;;;10.03;8.47;;;;;;;5.92;55.57;99550.56;8410812;28;20233;-67
2023/02/05 15:20:32;;;;;;;8.43;7.60;;;;;;;5.94;55.41;99547.16;8411129;28;20243;-67
2023/02/05 15:24:37;;;;;;;10.57;7.63;;;;;;;5.79;55.75;99542.88;8411067;28;20243;-67
2023/02/05 15:28:42;;;;;;;8.27;7.27;;;;;;;5.91;55.71;99542.00;8410269;28;20236;-67
2023/02/05 15:32:48;;;;;;;9.83;7.73;;;;;;;5.81;55.94;99555.72;8444148;28;20228;-67
2023/02/05 15:36:54;;;;;;;9.93;8.20;;;;;;;5.87;55.84;99559.13;8444410;28;20235;-67
2023/02/05 15:40:59;;;;;;;9.57;7.40;;;;;;;5.84;56.18;99556.56;8444542;28;20239;-67
2023/02/05 15:45:16;;;;;;;9.37;8.47;;;;;;;5.64;56.89;99551.41;8444117;28;20254;-66
2023/02/05 15:49:21;;;;;;;8.63;7.73;;;;;;;5.75;57.08;99555.69;8444033;28;20224;-67
2023/02/05 15:53:33;;;;;;;6.90;5.93;;;;;;;5.74;56.00;99552.28;8443226;28;20223;-67
2023/02/05 15:57:37;;;;;;;5.40;4.90;;;;;;;5.87;55.95;99554.00;8425177;28;20526;-67
2023/02/05 16:01:45;;;;;;;9.20;7.37;;;;;;;5.45;57.47;99567.69;8443190;28;20242;-67
2023/02/05 16:05:51;;;;;;;6.93;6.20;;;;;;;5.57;56.75;99574.53;8442274;28;20231;-67
2023/02/05 16:09:56;;;;;;;7.63;6.83;;;;;;;5.77;56.26;99579.69;8442790;28;20235;-66
2023/02/05 16:14:12;;;;;;;7.63;6.80;;;;;;;5.72;56.44;99586.56;8443240;28;20346;-67
2023/02/05 16:18:19;;;;;;;7.43;6.67;;;;;;;5.81;57.10;99586.56;8443315;28;20535;-67
2023/02/05 16:22:29;;;;;;;7.57;6.77;;;;;;;5.82;56.03;99585.69;8441947;28;20518;-67
2023/02/05 16:26:37;;;;;;;7.17;6.47;;;;;;;5.84;55.97;99581.41;8425140;28;20531;-66
2023/02/05 16:30:42;;;;;;;12.10;9.53;;;;;;;5.60;56.32;99579.69;8443479;28;20251;-65
2023/02/05 16:34:46;;;;;;;11.77;9.40;;;;;;;5.68;56.96;99589.13;8409254;28;20278;-66
2023/02/05 16:38:53;;;;;;;8.17;7.33;;;;;;;5.70;56.44;99599.41;8409885;28;20236;-66
2023/02/05 16:42:56;;;;;;;7.97;6.97;;;;;;;5.80;55.42;99597.69;8415578;28;20232;-66
2023/02/05 16:47:12;;;;;;;6.80;6.00;;;;;;;5.59;55.72;99613.94;8416099;28;20228;-66
2023/02/05 16:51:32;;;;;;;19.97;8.77;;;;;;;6.02;58.50;99617.47;8416237;28;20231;-66
2023/02/05 16:55:41;;;;;;;10.50;8.03;;;;;;;5.98;55.54;99628.63;8415892;28;20224;-66
2023/02/05 16:59:50;;;;;;;10.63;9.53;;;;;;;5.51;55.60;99551.41;8415617;28;20535;-66
2023/02/05 17:03:55;;;;;;;10.23;8.17;;;;;;;5.98;55.54;99646.63;8414694;28;20232;-66
2023/02/05 17:08:01;;;;;;;10.67;8.17;;;;;;;5.84;55.45;99636.25;8415842;28;20232;-66
2023/02/05 17:12:36;;;;;;;24.73;14.87;;;;;;;5.85;55.94;99658.56;8416586;28;20230;-67
2023/02/05 17:16:41;;;;;;;10.00;8.03;;;;;;;5.71;55.57;99642.22;8415838;28;20251;-68
2023/02/05 17:20:45;;;;;;;7.90;6.93;;;;;;;5.81;55.90;99650.84;8414911;28;20228;-67
2023/02/05 17:24:50;;;;;;;6.20;5.60;;;;;;;5.71;56.08;99655.09;8414602;28;20382;-67
2023/02/05 17:28:55;;;;;;;6.73;6.00;;;;;;;5.74;56.11;99655.09;8415942;28;20591;-67
2023/02/05 17:32:58;;;;;;;7.07;6.37;;;;;;;5.75;56.07;99653.38;8415549;28;20233;-67
2023/02/05 17:37:02;;;;;;;13.37;9.27;;;;;;;5.70;56.11;99663.66;8415095;28;20236;-67
2023/02/05 17:45:34;;;;;;;10.73;7.37;;;;;;;5.81;56.42;99656.00;8414615;28;20223;-67
2023/02/05 17:49:37;;;;;;;9.77;6.87;;;;;;;5.62;56.00;99624.25;8414672;28;20228;-67
2023/02/05 17:53:41;;;;;;;7.77;6.40;;;;;;;5.82;56.47;99653.41;8413625;28;20256;-67
2023/02/05 17:57:44;;;;;;;7.93;7.13;;;;;;;5.68;55.84;99619.97;8447365;28;20220;-67
2023/02/05 18:01:49;;;;;;;8.10;6.60;;;;;;;5.82;56.17;99658.53;8447292;28;20231;-67
2023/02/05 18:05:52;;;;;;;6.60;5.90;;;;;;;5.80;55.89;99656.84;8447119;28;20431;-67
2023/02/05 18:09:56;;;;;;;10.40;6.03;;;;;;;5.70;56.46;99655.97;8447473;28;20231;-67
2023/02/05 18:13:59;;;;;;;7.53;5.60;;;;;;;5.67;56.38;99664.53;8446864;28;20234;-67
2023/02/05 18:18:01;;;;;;;7.97;6.30;;;;;;;5.73;56.15;99663.69;8446945;28;20249;-67
2023/02/05 18:22:04;;;;;;;16.37;9.30;;;;;;;5.57;56.36;99678.19;8447251;28;20223;-67
2023/02/05 18:26:10;;;;;;;8.53;6.90;;;;;;;5.64;56.38;99682.50;8446870;28;20227;-66
2023/02/05 18:30:14;;;;;;;7.70;6.90;;;;;;;5.83;56.27;99680.00;8445939;28;20234;-67
2023/02/05 18:34:17;;;;;;;9.47;7.63;;;;;;;5.73;56.07;99685.94;8446180;28;20280;-67
2023/02/05 18:38:22;;;;;;;9.97;8.20;;;;;;;5.81;55.94;99697.13;8445749;28;20232;-67
2023/02/05 18:42:26;;;;;;;19.77;11.73;;;;;;;6.51;71.98;99692.94;8446106;28;20242;-68
2023/02/05 18:46:29;;;;;;;16.53;9.87;;;;;;;9.50;68.92;99694.53;8445696;28;20227;-67
2023/02/05 18:50:32;;;;;;;8.43;7.57;;;;;;;7.46;56.34;99697.88;8445698;28;20231;-68
2023/02/05 18:54:35;;;;;;;10.50;7.90;;;;;;;6.93;55.54;99704.94;8445427;28;20227;-67
2023/02/05 18:58:40;;;;;;;13.10;8.97;;;;;;;6.37;55.78;99695.50;8445971;28;20535;-67
2023/02/05 19:02:43;;;;;;;11.00;9.90;;;;;;;6.39;55.41;99712.66;8411068;28;20228;-67
2023/02/05 19:06:51;;;;;;;9.97;8.77;;;;;;;6.27;55.74;99720.38;8412662;28;20294;-67
2023/02/05 19:10:54;;;;;;;9.73;8.63;;;;;;;6.07;56.11;99731.50;8411977;28;20240;-68
2023/02/05 19:14:58;;;;;;;22.10;15.97;;;;;;;6.16;55.46;99733.22;8411573;28;20418;-67
2023/02/05 19:19:01;;;;;;;17.00;14.53;;;;;;;5.90;55.89;99742.56;8411516;28;28402;-68
2023/02/05 19:23:04;;;;;;;10.37;8.80;;;;;;;5.73;56.53;99733.09;8410952;28;20232;-67
2023/02/05 19:27:07;;;;;;;9.07;7.77;;;;;;;5.84;56.72;99751.13;8411705;28;20547;-67
2023/02/05 19:31:13;;;;;;;10.47;7.87;;;;;;;5.58;57.03;99739.03;8410629;28;20511;-67
2023/02/05 19:35:16;;;;;;;11.40;8.57;;;;;;;5.78;56.63;99762.22;8411464;28;20228;-67
2023/02/05 19:39:19;;;;;;;9.43;7.97;;;;;;;5.90;56.50;99758.00;8410504;28;20227;-67
2023/02/05 19:43:23;;;;;;;12.97;10.37;;;;;;;5.56;57.00;99768.13;8410598;28;20224;-67
2023/02/05 19:47:28;;;;;;;10.67;9.60;;;;;;;5.66;57.23;99757.06;8410611;28;20224;-67